Time;durP1;ratioP1;P1;durP2;ratioP2;P2;SDS_P1;SDS_P2;PMS_P1;PMS_P2;Temp;Humidity;BMP_temperature;BMP_pressure;BME280_temperature;BME280_humidity;BME280_pressure;Samples;Min_cycle;Max_cycle;Signal;HPM_P1;HPM_P2
2021/09/07 00:00:45;;;;;;;29.35;17.20;;;;;;;10.00;59.33;100654.36;1756298;81;21017;-40
2021/09/07 00:03:12;;;;;;;26.52;15.72;;;;;;;9.97;59.39;100652.28;1756403;81;21032;-40
2021/09/07 00:05:39;;;;;;;25.10;15.65;;;;;;;9.96;59.32;100656.13;1756452;81;21199;-40
2021/09/07 00:08:06;;;;;;;29.25;17.40;;;;;;;9.93;59.28;100658.12;1755716;80;21068;-40
2021/09/07 00:10:33;;;;;;;27.62;16.55;;;;;;;9.90;59.33;100658.77;1749381;80;21586;-40
2021/09/07 00:13:00;;;;;;;25.27;15.75;;;;;;;9.87;59.45;100656.72;1726283;82;21032;-40
2021/09/07 00:15:27;;;;;;;26.48;15.80;;;;;;;9.85;59.55;100662.20;1726396;83;21060;-40
2021/09/07 00:17:55;;;;;;;25.27;15.45;;;;;;;9.81;59.52;100656.65;1726376;83;22007;-40
2021/09/07 00:20:24;;;;;;;25.52;15.95;;;;;;;9.76;59.62;100660.88;1726446;83;21527;-40
2021/09/07 00:22:51;;;;;;;24.02;15.55;;;;;;;9.73;59.63;100658.80;1725922;82;21045;-42
2021/09/07 00:25:18;;;;;;;27.95;16.07;;;;;;;9.69;59.64;100663.27;1713468;82;21033;-40
2021/09/07 00:27:44;;;;;;;27.20;16.95;;;;;;;9.66;59.72;100659.06;1713639;83;21088;-40
2021/09/07 00:30:13;;;;;;;25.70;16.50;;;;;;;9.62;59.79;100666.24;1730962;82;21552;-40
2021/09/07 00:32:40;;;;;;;27.37;16.57;;;;;;;9.58;60.04;100663.39;1743063;82;21425;-40
2021/09/07 00:35:11;;;;;;;27.13;16.95;;;;;;;9.53;60.12;100660.29;1743090;82;20970;-40
2021/09/07 00:38:29;;;;;;;27.87;14.78;;;;;;;9.54;60.09;100663.21;1774687;79;22830;-40
2021/09/07 00:40:56;;;;;;;23.40;14.45;;;;;;;9.48;60.22;100667.22;1780301;80;21551;-39
2021/09/07 00:43:23;;;;;;;28.62;15.55;;;;;;;9.55;60.08;100664.81;1788235;80;21167;-39
2021/09/07 00:45:50;;;;;;;23.07;15.28;;;;;;;9.60;59.96;100663.84;1781857;80;21543;-39
2021/09/07 00:48:17;;;;;;;25.80;15.63;;;;;;;9.61;59.92;100665.44;1788138;80;20918;-40
2021/09/07 00:50:45;;;;;;;27.13;15.55;;;;;;;9.63;59.89;100661.88;1788297;80;21515;-39
2021/09/07 00:53:11;;;;;;;25.65;15.70;;;;;;;9.65;59.90;100652.85;1788165;80;21856;-39
2021/09/07 00:55:39;;;;;;;27.77;15.15;;;;;;;9.67;59.76;100658.75;1757821;80;21491;-39
2021/09/07 00:58:05;;;;;;;29.92;16.97;;;;;;;9.66;59.84;100653.09;1788084;80;20980;-40
2021/09/07 01:00:32;;;;;;;27.00;15.75;;;;;;;9.63;59.82;100657.01;1788140;80;20968;-39
2021/09/07 01:03:00;;;;;;;26.93;16.42;;;;;;;9.58;59.76;100662.80;1781517;80;20965;-40
2021/09/07 01:05:28;;;;;;;28.40;16.12;;;;;;;9.56;59.64;100653.42;1788073;80;21813;-39
2021/09/07 01:07:55;;;;;;;27.27;16.67;;;;;;;9.53;59.73;100651.38;1777590;80;21077;-39
2021/09/07 01:10:24;;;;;;;27.15;15.60;;;;;;;9.52;59.54;100657.89;1735963;80;21543;-39
2021/09/07 01:12:52;;;;;;;28.00;16.07;;;;;;;9.49;59.61;100655.25;1788362;80;21617;-39
2021/09/07 01:15:20;;;;;;;27.22;16.32;;;;;;;9.47;59.73;100654.80;1733690;80;21521;-40
2021/09/07 01:17:47;;;;;;;29.77;16.30;;;;;;;9.44;59.68;100653.30;1780619;80;21044;-40
2021/09/07 01:20:14;;;;;;;26.52;15.10;;;;;;;9.42;59.63;100655.52;1786672;80;21135;-40
2021/09/07 01:22:41;;;;;;;26.40;15.65;;;;;;;9.37;59.70;100657.83;1788173;80;20905;-39
2021/09/07 01:25:09;;;;;;;24.57;14.55;;;;;;;9.32;59.72;100657.19;1788563;80;21044;-39
2021/09/07 01:27:36;;;;;;;22.55;14.90;;;;;;;9.29;59.88;100655.13;1788131;80;21527;-39
2021/09/07 01:30:05;;;;;;;23.83;15.05;;;;;;;9.27;59.97;100660.86;1788229;80;21037;-39
2021/09/07 01:32:33;;;;;;;25.52;16.07;;;;;;;9.24;60.05;100658.80;1785495;80;21536;-39
2021/09/07 01:34:59;;;;;;;23.40;14.13;;;;;;;9.21;60.01;100658.61;1757425;79;21043;-39
2021/09/07 01:37:26;;;;;;;24.57;15.00;;;;;;;9.12;60.11;100662.67;1754627;81;20994;-39
2021/09/07 01:39:52;;;;;;;23.30;14.13;;;;;;;9.07;60.26;100655.52;1752051;81;20969;-39
2021/09/07 01:42:22;;;;;;;23.50;14.63;;;;;;;9.07;60.40;100654.72;1751865;81;20945;-39
2021/09/07 01:44:48;;;;;;;26.50;14.07;;;;;;;9.05;60.40;100655.02;1751927;81;21147;-39
2021/09/07 01:47:14;;;;;;;26.45;14.50;;;;;;;9.02;60.41;100655.67;1751693;81;21080;-39
2021/09/07 01:49:41;;;;;;;23.47;14.05;;;;;;;8.98;60.42;100658.77;1777819;80;20990;-39
2021/09/07 01:52:12;;;;;;;23.40;14.43;;;;;;;8.97;60.41;100653.12;1781105;80;21068;-39
2021/09/07 01:54:47;;;;;;;23.87;14.73;;;;;;;8.96;60.43;100654.23;1779894;80;20926;-39
2021/09/07 01:57:14;;;;;;;25.55;13.38;;;;;;;8.95;60.43;100655.36;1782238;80;21148;-39
2021/09/07 01:59:42;;;;;;;24.98;14.58;;;;;;;8.92;60.45;100660.03;1782268;80;21028;-39
2021/09/07 02:02:09;;;;;;;21.80;13.43;;;;;;;8.90;60.54;100654.72;1782031;80;21095;-39
2021/09/07 02:04:36;;;;;;;22.05;12.75;;;;;;;8.88;60.65;100658.28;1782159;80;21040;-39
2021/09/07 02:07:05;;;;;;;20.05;11.97;;;;;;;8.88;60.59;100650.97;1781557;80;21079;-39
2021/09/07 02:09:33;;;;;;;21.70;13.43;;;;;;;8.93;60.46;100652.16;1773606;80;22070;-39
2021/09/07 02:12:02;;;;;;;20.90;12.90;;;;;;;8.98;60.38;100657.42;1717684;83;21097;-39
2021/09/07 02:14:31;;;;;;;17.52;9.83;;;;;;;9.00;60.31;100656.56;1721769;83;20941;-39
2021/09/07 02:16:58;;;;;;;20.75;12.88;;;;;;;9.01;60.20;100658.13;1721490;83;21037;-40
2021/09/07 02:19:25;;;;;;;20.48;12.88;;;;;;;9.03;60.16;100656.47;1720415;83;21021;-39
2021/09/07 02:21:52;;;;;;;21.80;12.85;;;;;;;9.03;60.01;100657.82;1718596;83;21120;-39
2021/09/07 02:24:20;;;;;;;20.52;11.68;;;;;;;9.03;59.99;100657.27;1685486;83;21122;-39
2021/09/07 02:26:47;;;;;;;20.65;13.22;;;;;;;9.04;59.90;100652.66;1751404;82;20952;-39
2021/09/07 02:29:14;;;;;;;23.77;13.03;;;;;;;9.03;59.68;100657.82;1751074;81;21521;-39
2021/09/07 02:31:43;;;;;;;22.13;12.75;;;;;;;9.02;59.67;100654.31;1751221;82;21025;-39
2021/09/07 02:34:11;;;;;;;22.37;13.22;;;;;;;8.98;59.86;100654.72;1751241;82;21064;-39
2021/09/07 02:36:38;;;;;;;21.50;12.68;;;;;;;8.96;59.92;100653.42;1778275;80;21033;-39
2021/09/07 02:39:05;;;;;;;21.35;12.82;;;;;;;8.93;60.02;100656.22;1692202;83;21061;-40
2021/09/07 02:41:32;;;;;;;20.57;11.97;;;;;;;8.90;60.15;100663.63;1768019;80;21064;-39
2021/09/07 02:43:59;;;;;;;19.80;12.60;;;;;;;8.86;60.16;100661.88;1769233;81;20997;-40
2021/09/07 02:46:26;;;;;;;23.52;12.80;;;;;;;8.82;60.24;100653.58;1768983;81;21089;-39
2021/09/07 02:48:54;;;;;;;21.12;12.68;;;;;;;8.79;60.23;100656.92;1752863;80;21029;-39
2021/09/07 02:51:21;;;;;;;21.75;12.45;;;;;;;8.77;60.19;100653.72;1743233;82;21973;-39
2021/09/07 02:53:48;;;;;;;21.85;12.63;;;;;;;8.76;60.27;100656.77;1743467;82;21002;-39
2021/09/07 02:56:16;;;;;;;20.02;12.58;;;;;;;8.72;60.31;100656.02;1743217;82;21047;-39
2021/09/07 02:58:44;;;;;;;21.77;13.03;;;;;;;8.70;60.32;100656.11;1743148;82;21507;-39
2021/09/07 03:01:12;;;;;;;19.77;12.28;;;;;;;8.68;60.30;100651.56;1743100;82;21591;-41
2021/09/07 03:03:39;;;;;;;19.65;11.95;;;;;;;8.65;60.13;100657.05;1743325;82;20977;-39
2021/09/07 03:06:05;;;;;;;19.92;12.75;;;;;;;8.66;60.22;100660.56;1743181;82;20906;-39
2021/09/07 03:08:32;;;;;;;21.80;12.23;;;;;;;8.64;60.35;100660.06;1751636;80;21017;-39
2021/09/07 03:11:00;;;;;;;19.40;11.63;;;;;;;8.63;60.44;100655.77;1774016;80;21976;-39
2021/09/07 03:13:27;;;;;;;17.02;10.80;;;;;;;8.62;60.50;100654.97;1768251;80;21038;-39
2021/09/07 03:15:53;;;;;;;18.85;12.00;;;;;;;8.61;60.56;100662.05;1762780;81;21778;-40
2021/09/07 03:18:20;;;;;;;20.55;12.65;;;;;;;8.59;60.61;100665.06;1763229;80;21009;-39
2021/09/07 03:20:47;;;;;;;19.52;11.38;;;;;;;8.58;60.59;100659.96;1765224;81;21026;-39
2021/09/07 03:23:16;;;;;;;17.55;11.12;;;;;;;8.57;60.66;100661.06;1765135;81;21520;-39
2021/09/07 03:25:44;;;;;;;21.77;11.10;;;;;;;8.58;60.67;100656.70;1765166;81;21064;-39
2021/09/07 03:28:11;;;;;;;17.15;11.00;;;;;;;8.65;60.59;100663.02;1758593;81;20954;-39
2021/09/07 03:30:39;;;;;;;19.55;11.73;;;;;;;8.71;60.50;100665.23;1771772;80;20965;-40
2021/09/07 03:33:07;;;;;;;24.23;12.35;;;;;;;8.73;60.53;100663.03;1773903;80;20962;-39
2021/09/07 03:35:34;;;;;;;16.12;11.25;;;;;;;8.76;60.55;100664.88;1772386;80;21133;-39
2021/09/07 03:38:02;;;;;;;18.40;11.80;;;;;;;8.78;60.49;100664.78;1769101;80;21021;-39
2021/09/07 03:40:29;;;;;;;18.05;11.22;;;;;;;8.80;60.41;100665.83;1773637;80;21393;-40
2021/09/07 03:42:58;;;;;;;18.45;11.53;;;;;;;8.80;60.44;100666.63;1774104;80;20929;-39
2021/09/07 03:45:26;;;;;;;22.87;12.68;;;;;;;8.80;60.50;100657.16;1773918;80;21547;-39
2021/09/07 03:47:54;;;;;;;18.90;11.85;;;;;;;8.81;60.69;100663.38;1773946;80;21201;-39
2021/09/07 03:50:21;;;;;;;20.02;12.07;;;;;;;8.80;60.92;100663.92;1773771;80;21453;-39
2021/09/07 03:52:49;;;;;;;21.25;12.55;;;;;;;8.81;61.11;100662.02;1774053;80;21503;-39
2021/09/07 03:55:19;;;;;;;18.77;11.88;;;;;;;8.80;61.20;100663.92;1774083;80;20992;-39
2021/09/07 03:57:47;;;;;;;22.90;12.30;;;;;;;8.81;61.12;100668.78;1773885;80;21485;-39
2021/09/07 04:00:16;;;;;;;20.15;11.95;;;;;;;8.80;61.33;100667.98;1773854;80;21159;-39
2021/09/07 04:02:44;;;;;;;17.12;11.90;;;;;;;8.82;61.58;100664.39;1774008;80;21794;-39
2021/09/07 04:05:11;;;;;;;19.67;11.75;;;;;;;8.84;61.74;100670.30;1771903;80;20981;-40
2021/09/07 04:07:38;;;;;;;21.33;12.15;;;;;;;8.89;61.71;100664.73;1773976;80;21041;-40
2021/09/07 04:10:07;;;;;;;20.10;12.80;;;;;;;8.97;61.75;100662.58;1768210;80;21265;-40
2021/09/07 04:12:35;;;;;;;24.18;13.43;;;;;;;9.10;61.66;100664.92;1734934;82;21079;-40
2021/09/07 04:15:06;;;;;;;22.02;13.30;;;;;;;9.14;61.45;100668.03;1734865;82;21026;-40
2021/09/07 04:17:32;;;;;;;27.40;14.33;;;;;;;9.21;61.63;100670.23;1734810;81;21017;-40
2021/09/07 04:20:00;;;;;;;23.87;13.53;;;;;;;9.29;61.60;100674.08;1766755;80;21012;-40
2021/09/07 04:22:28;;;;;;;23.42;13.22;;;;;;;9.33;61.62;100675.02;1773853;80;21093;-40
2021/09/07 04:24:54;;;;;;;27.20;14.35;;;;;;;9.38;61.43;100674.86;1769289;80;21109;-40
2021/09/07 04:27:22;;;;;;;24.40;13.62;;;;;;;9.42;61.38;100673.11;1763699;81;21001;-39
2021/09/07 04:29:49;;;;;;;21.65;12.85;;;;;;;9.46;61.45;100674.86;1752447;80;20902;-40
2021/09/07 04:32:15;;;;;;;21.85;13.58;;;;;;;9.52;61.60;100674.14;1736950;82;20977;-40
2021/09/07 04:34:42;;;;;;;21.12;12.90;;;;;;;9.54;61.39;100675.95;1740483;80;21032;-40
2021/09/07 04:37:10;;;;;;;22.55;12.85;;;;;;;9.56;61.64;100677.23;1743193;82;21550;-40
2021/09/07 04:39:37;;;;;;;22.87;13.15;;;;;;;9.62;61.58;100671.66;1754930;80;21028;-40
2021/09/07 04:42:04;;;;;;;22.48;13.58;;;;;;;9.68;61.61;100678.50;1760879;80;21076;-40
2021/09/07 04:44:32;;;;;;;20.20;12.63;;;;;;;9.69;61.47;100678.16;1782347;80;21024;-39
2021/09/07 04:47:00;;;;;;;23.03;12.97;;;;;;;9.68;61.59;100678.50;1782616;80;21099;-40
2021/09/07 04:49:27;;;;;;;19.42;11.88;;;;;;;9.67;61.78;100677.70;1782471;80;21125;-40
2021/09/07 04:51:56;;;;;;;22.17;12.93;;;;;;;9.72;61.95;100673.48;1782343;80;21520;-40
2021/09/07 04:54:23;;;;;;;20.02;12.63;;;;;;;9.82;61.93;100670.98;1776890;80;21009;-40
2021/09/07 04:56:51;;;;;;;25.57;13.68;;;;;;;9.90;62.02;100676.38;1782352;80;21554;-40
2021/09/07 04:59:18;;;;;;;20.82;12.98;;;;;;;9.97;62.24;100672.59;1782433;80;21076;-40
2021/09/07 05:01:44;;;;;;;27.87;13.03;;;;;;;10.04;62.27;100669.41;1782348;80;21044;-40
2021/09/07 05:04:11;;;;;;;20.88;13.18;;;;;;;10.14;62.39;100670.97;1782156;80;20957;-40
2021/09/07 05:06:39;;;;;;;22.52;13.15;;;;;;;10.22;62.40;100677.73;1782246;80;20945;-40
2021/09/07 05:09:05;;;;;;;20.32;12.37;;;;;;;10.24;62.43;100674.15;1782366;80;20980;-40
2021/09/07 05:11:32;;;;;;;20.35;12.65;;;;;;;10.33;62.55;100677.62;1782458;80;21570;-40
2021/09/07 05:13:59;;;;;;;24.50;13.32;;;;;;;10.39;62.30;100674.97;1782250;80;21145;-40
2021/09/07 05:16:26;;;;;;;20.60;13.28;;;;;;;10.44;62.41;100673.98;1782268;80;20929;-40
2021/09/07 05:18:54;;;;;;;22.52;12.75;;;;;;;10.49;62.36;100686.01;1782234;80;20959;-40
2021/09/07 05:21:22;;;;;;;23.27;13.48;;;;;;;10.53;62.42;100676.66;1782314;80;21529;-40
2021/09/07 05:23:50;;;;;;;20.70;12.07;;;;;;;10.58;62.33;100680.53;1780536;80;20945;-40
2021/09/07 05:26:17;;;;;;;21.45;12.23;;;;;;;10.66;62.37;100683.20;1782511;80;21136;-40
2021/09/07 05:28:44;;;;;;;25.88;12.35;;;;;;;10.78;62.32;100684.66;1782587;80;21504;-40
2021/09/07 05:31:11;;;;;;;19.62;11.85;;;;;;;10.90;62.31;100683.38;1781121;80;21550;-40
2021/09/07 05:33:37;;;;;;;20.85;11.73;;;;;;;11.04;62.13;100686.39;1780027;80;21009;-40
2021/09/07 05:36:05;;;;;;;19.80;11.90;;;;;;;11.14;61.99;100682.73;1782430;80;21029;-40
2021/09/07 05:38:32;;;;;;;17.00;10.50;;;;;;;11.20;61.84;100681.97;1782290;80;21119;-40
2021/09/07 05:40:59;;;;;;;17.27;10.78;;;;;;;11.26;61.82;100690.95;1776283;80;21500;-40
2021/09/07 05:43:25;;;;;;;17.90;10.18;;;;;;;11.34;61.73;100687.92;1767063;81;21009;-40
2021/09/07 05:45:52;;;;;;;16.30;9.65;;;;;;;11.42;60.84;100693.07;1767207;81;21045;-40
2021/09/07 05:48:18;;;;;;;17.55;9.68;;;;;;;11.48;60.58;100693.08;1768749;80;21528;-40
2021/09/07 05:50:46;;;;;;;18.92;10.38;;;;;;;11.53;59.74;100696.38;1764119;80;21549;-40
2021/09/07 05:53:13;;;;;;;19.67;10.35;;;;;;;11.56;60.22;100697.09;1692610;84;21026;-40
2021/09/07 05:55:40;;;;;;;17.57;9.53;;;;;;;11.62;60.60;100705.25;1762826;80;21085;-40
2021/09/07 05:58:07;;;;;;;16.00;9.03;;;;;;;11.66;59.13;100698.05;1692567;84;21052;-40
2021/09/07 06:00:33;;;;;;;13.00;8.43;;;;;;;11.70;59.91;100695.45;1762881;81;21011;-40
2021/09/07 06:03:02;;;;;;;16.32;9.25;;;;;;;11.74;59.87;100701.83;1762701;81;21122;-40
2021/09/07 06:05:30;;;;;;;14.03;9.13;;;;;;;11.81;59.52;100712.96;1762673;81;20915;-40
2021/09/07 06:07:56;;;;;;;10.48;7.42;;;;;;;11.87;58.73;100708.08;1692685;84;21545;-40
2021/09/07 06:10:23;;;;;;;11.85;7.42;;;;;;;11.93;58.78;100708.11;1748791;81;21024;-40
2021/09/07 06:12:52;;;;;;;13.00;7.20;;;;;;;12.01;57.65;100714.81;1747222;82;20949;-40
2021/09/07 06:15:20;;;;;;;9.00;6.50;;;;;;;12.10;56.76;100714.74;1747213;82;20980;-40
2021/09/07 06:17:47;;;;;;;10.63;6.42;;;;;;;12.19;56.44;100719.52;1747275;82;20925;-40
2021/09/07 06:20:14;;;;;;;12.75;7.28;;;;;;;12.27;56.26;100718.61;1749216;80;20909;-40
2021/09/07 06:22:40;;;;;;;12.85;7.78;;;;;;;12.37;55.90;100717.38;1748788;82;21519;-40
2021/09/07 06:25:08;;;;;;;10.58;6.62;;;;;;;12.45;55.08;100718.63;1748965;82;21282;-40
2021/09/07 06:27:35;;;;;;;13.10;7.17;;;;;;;12.55;54.35;100722.27;1766953;80;21120;-40
2021/09/07 06:30:03;;;;;;;10.38;6.85;;;;;;;12.63;53.97;100721.95;1773908;80;21041;-40
2021/09/07 06:32:31;;;;;;;21.57;7.90;;;;;;;12.73;53.88;100722.06;1767242;81;21371;-40
2021/09/07 06:34:59;;;;;;;38.80;9.90;;;;;;;12.83;53.72;100722.97;1767004;81;21006;-40
2021/09/07 06:37:26;;;;;;;37.88;9.20;;;;;;;12.93;53.18;100721.13;1767410;80;21068;-40
2021/09/07 06:39:53;;;;;;;13.72;7.10;;;;;;;13.03;53.30;100728.27;1774351;80;21140;-40
2021/09/07 06:42:20;;;;;;;20.00;8.03;;;;;;;13.16;53.93;100729.09;1767738;80;21293;-40
2021/09/07 06:44:46;;;;;;;10.90;7.65;;;;;;;13.30;53.82;100728.71;1764916;80;21026;-40
2021/09/07 06:47:14;;;;;;;13.38;7.37;;;;;;;13.44;53.80;100733.22;1764954;81;20954;-40
2021/09/07 06:49:41;;;;;;;15.28;7.70;;;;;;;13.59;53.32;100735.78;1765076;81;21050;-40
2021/09/07 06:52:08;;;;;;;12.37;7.33;;;;;;;13.71;52.31;100734.36;1759249;81;21138;-40
2021/09/07 06:54:34;;;;;;;15.88;7.53;;;;;;;13.82;51.85;100739.55;1754746;81;20970;-40
2021/09/07 06:57:01;;;;;;;12.33;7.08;;;;;;;13.93;51.75;100736.55;1754660;81;20966;-40
2021/09/07 06:59:29;;;;;;;12.40;7.40;;;;;;;14.08;51.82;100737.73;1754486;81;21777;-40
2021/09/07 07:01:56;;;;;;;12.60;7.33;;;;;;;14.22;51.68;100733.44;1754538;81;21001;-40
2021/09/07 07:04:23;;;;;;;18.23;7.65;;;;;;;14.38;51.55;100739.52;1754659;81;21852;-40
2021/09/07 07:06:49;;;;;;;10.15;6.45;;;;;;;14.52;50.96;100737.94;1754610;81;21497;-40
2021/09/07 07:09:16;;;;;;;9.95;6.30;;;;;;;14.69;51.02;100734.05;1752095;80;21592;-40
2021/09/07 07:11:43;;;;;;;12.18;6.12;;;;;;;14.85;50.74;100739.50;1754245;80;20999;-40
2021/09/07 07:14:10;;;;;;;10.75;5.87;;;;;;;15.00;50.22;100736.75;1762317;81;21005;-40
2021/09/07 07:16:37;;;;;;;9.60;5.58;;;;;;;15.14;49.35;100733.54;1762228;81;21075;-40
2021/09/07 07:19:05;;;;;;;8.05;5.37;;;;;;;15.30;49.08;100732.14;1764548;81;20950;-40
2021/09/07 07:21:32;;;;;;;10.15;5.75;;;;;;;15.43;48.13;100729.48;1768903;81;20961;-40
2021/09/07 07:24:00;;;;;;;8.55;5.50;;;;;;;15.54;47.34;100728.56;1768996;81;21045;-40
2021/09/07 07:26:26;;;;;;;8.03;5.00;;;;;;;15.66;46.71;100733.11;1768991;81;21017;-40
2021/09/07 07:28:54;;;;;;;7.08;4.42;;;;;;;15.78;47.11;100736.28;1769196;81;21890;-40
2021/09/07 07:31:20;;;;;;;7.42;4.78;;;;;;;15.91;46.37;100741.23;1773548;80;21940;-41
2021/09/07 07:33:47;;;;;;;9.58;6.03;;;;;;;16.05;46.02;100734.66;1773816;80;20910;-41
2021/09/07 07:36:16;;;;;;;11.85;5.55;;;;;;;16.19;45.11;100734.70;1773726;80;21000;-41
2021/09/07 07:38:43;;;;;;;17.02;5.80;;;;;;;16.33;45.27;100733.58;1774031;80;20981;-40
2021/09/07 07:41:09;;;;;;;18.85;5.17;;;;;;;16.48;44.61;100738.95;1772846;80;21146;-41
2021/09/07 07:43:43;;;;;;;12.80;4.90;;;;;;;16.63;44.08;100741.38;1766051;80;21006;-40
2021/09/07 07:46:05;;;;;;;16.47;5.93;;;;;;;16.78;43.04;100737.70;1764676;80;20914;-40
2021/09/07 07:48:32;;;;;;;8.40;4.72;;;;;;;16.95;43.25;100738.55;1765013;81;21041;-41
2021/09/07 07:50:58;;;;;;;6.15;3.80;;;;;;;17.10;43.21;100744.23;1765160;81;21034;-40
2021/09/07 07:53:25;;;;;;;8.03;4.50;;;;;;;17.24;42.47;100732.09;1765582;80;21117;-40
2021/09/07 07:55:51;;;;;;;4.95;3.20;;;;;;;17.38;41.58;100733.66;1765252;81;21010;-41
2021/09/07 07:58:18;;;;;;;6.42;3.67;;;;;;;17.49;39.82;100739.28;1765127;81;21002;-41
2021/09/07 08:00:46;;;;;;;7.97;3.98;;;;;;;17.58;41.34;100726.08;1765122;81;21077;-40
2021/09/07 08:03:12;;;;;;;14.47;4.40;;;;;;;17.73;41.03;100726.48;1696181;84;21044;-41
2021/09/07 08:05:39;;;;;;;21.07;5.28;;;;;;;17.85;39.30;100726.83;1773976;80;21126;-40
2021/09/07 08:08:07;;;;;;;8.13;3.27;;;;;;;17.96;39.58;100731.86;1726341;82;21523;-41
2021/09/07 08:10:35;;;;;;;7.15;2.65;;;;;;;18.05;36.81;100728.23;1763645;81;21026;-41
2021/09/07 08:13:02;;;;;;;14.00;3.70;;;;;;;18.11;36.43;100722.59;1763830;81;21026;-41
2021/09/07 08:15:28;;;;;;;6.47;3.12;;;;;;;18.14;36.86;100724.59;1763827;81;21030;-41
2021/09/07 08:17:55;;;;;;;8.08;3.52;;;;;;;18.15;38.02;100724.20;1763954;81;21136;-41
2021/09/07 08:20:22;;;;;;;6.45;3.35;;;;;;;18.24;38.43;100726.66;1719103;81;21015;-41
2021/09/07 08:22:50;;;;;;;4.95;2.92;;;;;;;18.32;37.56;100724.75;1678225;85;21089;-41
2021/09/07 08:25:17;;;;;;;6.55;3.10;;;;;;;18.39;37.28;100721.50;1734260;81;21028;-40
2021/09/07 08:27:43;;;;;;;5.17;3.12;;;;;;;18.45;37.40;100723.30;1733588;82;21065;-41
2021/09/07 08:30:12;;;;;;;5.22;3.47;;;;;;;18.49;36.83;100722.16;1733995;81;21127;-41
2021/09/07 08:32:40;;;;;;;7.60;3.08;;;;;;;18.56;37.48;100726.38;1733899;81;21108;-41
2021/09/07 08:35:09;;;;;;;7.50;3.22;;;;;;;18.64;35.94;100720.34;1751959;81;21489;-41
2021/09/07 08:37:37;;;;;;;17.50;4.37;;;;;;;18.66;36.75;100727.05;1763999;81;21642;-41
2021/09/07 08:40:06;;;;;;;10.93;3.77;;;;;;;18.65;36.33;100730.96;1763799;81;21072;-40
2021/09/07 08:42:34;;;;;;;8.47;3.37;;;;;;;18.65;36.55;100719.19;1761158;81;21107;-41
2021/09/07 08:45:05;;;;;;;22.07;5.37;;;;;;;18.69;35.86;100732.35;1743382;82;21533;-40
2021/09/07 08:47:31;;;;;;;;;;;;;;;18.75;36.32;100727.30;1746009;82;21516;-41
2021/09/07 08:50:01;;;;;;;7.72;2.67;;;;;;;18.78;36.35;100730.67;1743460;82;20168;-41
2021/09/07 08:52:26;;;;;;;18.82;3.95;;;;;;;18.71;35.21;100720.99;1743497;81;21007;-40
2021/09/07 08:54:53;;;;;;;6.47;3.25;;;;;;;18.79;37.02;100726.16;1735952;81;21794;-40
2021/09/07 08:57:19;;;;;;;4.17;3.10;;;;;;;18.86;35.52;100724.05;1731507;81;21010;-41
2021/09/07 09:00:00;;;;;;;4.40;3.22;;;;;;;18.86;36.09;100718.56;1718225;83;20949;-40
2021/09/07 09:02:27;;;;;;;10.32;2.65;;;;;;;19.01;36.47;100709.23;1727640;81;21081;-41
2021/09/07 09:04:55;;;;;;;6.05;2.75;;;;;;;19.18;34.55;100718.16;1740684;82;21525;-41
2021/09/07 09:07:28;;;;;;;6.87;2.98;;;;;;;19.22;33.99;100707.97;1758753;81;21785;-40
2021/09/07 09:09:58;;;;;;;5.10;2.70;;;;;;;19.24;34.48;100702.09;1733545;82;21517;-41
2021/09/07 09:12:43;;;;;;;4.12;2.72;;;;;;;19.33;35.01;100717.65;1733831;81;26324;-40
2021/09/07 09:15:21;;;;;;;7.53;2.20;;;;;;;19.40;34.19;100702.57;1732572;82;21018;-40
2021/09/07 09:17:50;;;;;;;5.17;2.60;;;;;;;19.46;35.63;100699.08;1734259;81;21009;-40
2021/09/07 09:20:18;;;;;;;4.10;2.80;;;;;;;19.59;35.21;100709.75;1733539;82;21147;-40
2021/09/07 09:22:51;;;;;;;4.92;2.90;;;;;;;19.73;34.73;100709.80;1733416;82;21040;-40
2021/09/07 09:25:38;;;;;;;7.70;3.10;;;;;;;19.82;34.19;100700.58;1733660;82;21295;-40
2021/09/07 09:28:10;;;;;;;6.15;2.47;;;;;;;19.82;34.14;100699.99;1733567;82;21568;-40
2021/09/07 09:30:43;;;;;;;7.17;3.20;;;;;;;19.91;35.59;100699.61;1745840;81;21085;-40
2021/09/07 09:33:13;;;;;;;7.47;3.20;;;;;;;20.17;35.70;100699.28;1733779;81;21138;-40
2021/09/07 09:35:56;;;;;;;5.40;3.25;;;;;;;20.44;34.27;100690.66;1761654;81;21524;-40
2021/09/07 09:38:29;;;;;;;6.12;3.65;;;;;;;20.64;34.55;100692.62;1763364;81;20985;-40
2021/09/07 09:40:59;;;;;;;5.80;3.20;;;;;;;20.83;32.95;100693.58;1763757;81;21469;-40
2021/09/07 09:43:46;;;;;;;10.18;3.05;;;;;;;20.84;33.72;100695.75;1764171;81;21021;-40
2021/09/07 09:46:25;;;;;;;6.30;3.20;;;;;;;20.82;33.31;100691.21;1764284;81;21057;-40
2021/09/07 09:49:14;;;;;;;4.97;2.72;;;;;;;20.80;33.38;100692.22;1736894;81;21007;-40
2021/09/07 09:51:41;;;;;;;8.03;2.37;;;;;;;20.86;33.41;100696.15;1730145;81;20977;-40
2021/09/07 09:54:08;;;;;;;8.03;2.75;;;;;;;20.95;32.10;100688.25;1733837;82;21520;-40
2021/09/07 09:56:35;;;;;;;5.03;2.50;;;;;;;21.04;31.82;100690.00;1733372;82;21018;-40
2021/09/07 09:59:02;;;;;;;4.15;2.47;;;;;;;21.16;31.69;100686.83;1685512;82;22373;-40
2021/09/07 10:01:29;;;;;;;5.72;2.30;;;;;;;21.28;32.12;100693.11;1733826;82;21027;-40
2021/09/07 10:04:00;;;;;;;4.25;2.30;;;;;;;21.29;31.08;100686.41;1736992;81;21628;-40
2021/09/07 10:06:24;;;;;;;3.20;2.40;;;;;;;21.13;31.43;100690.40;1749744;81;21525;-40
2021/09/07 10:08:51;;;;;;;3.75;2.30;;;;;;;20.97;32.03;100691.97;1764199;81;21069;-40
2021/09/07 10:11:22;;;;;;;3.52;2.30;;;;;;;20.98;31.75;100698.48;1762960;80;21115;-40
2021/09/07 10:13:54;;;;;;;8.08;2.40;;;;;;;21.08;32.30;100688.02;1761668;81;21074;-40
2021/09/07 10:16:36;;;;;;;5.67;2.52;;;;;;;21.27;31.18;100691.53;1754850;81;21555;-40
2021/09/07 10:19:10;;;;;;;6.05;2.90;;;;;;;21.38;30.93;100688.14;1736512;81;21029;-40
2021/09/07 10:24:21;;;;;;;3.90;2.65;;;;;;;21.53;31.22;100688.28;1761669;81;20942;-40
2021/09/07 10:26:51;;;;;;;5.10;2.42;;;;;;;21.57;31.52;100689.05;1733910;82;20986;-40
2021/09/07 10:29:35;;;;;;;5.03;2.25;;;;;;;21.58;31.10;100674.86;1744470;81;21037;-40
2021/09/07 10:32:05;;;;;;;5.20;2.47;;;;;;;21.58;30.92;100676.83;1764371;81;21014;-41
2021/09/07 10:34:32;;;;;;;3.47;2.40;;;;;;;21.54;31.14;100669.16;1710990;81;21037;-41
2021/09/07 10:37:06;;;;;;;5.22;2.42;;;;;;;21.56;30.86;100677.81;1685697;81;21145;-40
2021/09/07 10:39:37;;;;;;;4.03;2.15;;;;;;;21.47;31.20;100668.59;1762671;81;20918;-40
2021/09/07 10:42:11;;;;;;;4.80;2.50;;;;;;;21.41;32.28;100673.53;1723790;81;21192;-40
2021/09/07 10:44:43;;;;;;;3.72;2.52;;;;;;;21.41;33.54;100672.95;1696335;84;21059;-41
2021/09/07 10:47:14;;;;;;;6.08;2.50;;;;;;;21.51;32.19;100672.70;1687320;85;21569;-40
2021/09/07 10:49:44;;;;;;;3.65;2.50;;;;;;;21.54;31.81;100670.55;1727797;83;21139;-40
2021/09/07 10:52:31;;;;;;;5.40;2.98;;;;;;;21.49;32.07;100672.34;1767468;81;21017;-41
2021/09/07 10:55:09;;;;;;;3.87;2.15;;;;;;;21.40;31.93;100674.13;1732755;81;21551;-41
2021/09/07 10:57:43;;;;;;;3.30;2.33;;;;;;;21.39;31.91;100670.41;1738860;82;21590;-41
2021/09/07 11:00:17;;;;;;;5.62;2.67;;;;;;;21.54;31.67;100669.16;1738492;82;21363;-41
2021/09/07 11:03:04;;;;;;;4.45;2.65;;;;;;;21.75;31.60;100662.12;1737081;82;21186;-41
2021/09/07 11:05:44;;;;;;;3.87;2.67;;;;;;;22.02;31.12;100674.23;1749602;81;20961;-41
2021/09/07 11:08:21;;;;;;;5.58;2.60;;;;;;;22.28;30.23;100670.67;1769208;81;20958;-41
2021/09/07 11:10:53;;;;;;;4.12;2.30;;;;;;;22.48;29.89;100658.66;1714584;81;21095;-41
2021/09/07 11:13:29;;;;;;;4.25;2.67;;;;;;;22.63;29.87;100662.08;1769381;81;21057;-41
2021/09/07 11:16:05;;;;;;;5.42;2.85;;;;;;;22.77;29.24;100660.58;1769153;81;21778;-41
2021/09/07 11:18:31;;;;;;;4.35;2.52;;;;;;;22.94;29.75;100658.84;1767659;81;21095;-41
2021/09/07 11:21:01;;;;;;;6.22;2.72;;;;;;;23.13;29.40;100656.05;1766891;81;21525;-41
2021/09/07 11:23:35;;;;;;;5.08;2.52;;;;;;;23.27;28.60;100653.11;1739459;81;21002;-41
2021/09/07 11:26:11;;;;;;;5.83;2.80;;;;;;;23.55;28.71;100650.00;1738862;81;21654;-41
2021/09/07 11:28:46;;;;;;;3.95;2.58;;;;;;;23.79;27.45;100638.39;1738625;81;21223;-41